Darstellungsparameter: Aktuell verwendete Einstellungen:
Skalierung der Graphiken ... ?
xyx+y,   Skalierungsfaktor:      Skalierung: Modus: x, Faktor: 1
Darstellungszeitraum ... ?
Vom - - bis: - -   Zeitraum: 03.04.2019 - 03.05.2019
Min/Max/Avg-Anzeige ... ?
Zeige MMA aktuell
Zeige MMA Monat
Zeige MMA alles
Zeige --A aktuell
Zeige --A Monat
Zeige --A alles
Keine MMA-Anzeige
MMA:
Average (ber die Originaldaten)
MMA-Basis: 03.04.2019 - 03.05.2019
Quicknavigation für Darstellung... ?
Tage:      1T, 2T, 3T, 5T -1T -2T -3T -5T +1T +2T +3T +5T
Wochen: 1W, 2W, 3W -1W -2W -3W +1W +2W +3W
Monate: 1M, 3M, 6M -1M -3M -6M +1M +3M +6M
Jahre:    1J, 3J, 5J, 10J -1J -3J -5J -10J +1J +3J +5J +10J
Nutze für die Darstellung ... ?
Originaldaten oder ...
Mittelwerte Minima Maxima auf...
Stundenbasis Tagesbasis Wochenbasis
Monatsbasis Jahresbasis      Datenbasis: Mittelwerte auf Stundenbasis
Darstellen als:
Statistik (Auto) Statistik J:M      Darstellung:
Zur Graphik,    zurück zur Übersicht aller Sensoren.
 
Tabellarische Datenbersicht: ?
 
Sensor: Nr:Datum:Temp:Abs-Feuchte:Windchill:Wind:
Aussen-T/F 1 03-04-2019 00:00:00 10.50833 C 7.64 g/m*3 10.51 C 0.66667 km/h
2 03-04-2019 01:00:00 10.275 C 7.62 g/m*3 10.28 C 0 km/h
3 03-04-2019 02:00:00 9.90833 C 7.61 g/m*3 9.91 C 0 km/h
4 03-04-2019 03:00:00 8.91667 C 7.43 g/m*3 8.92 C 0 km/h
5 03-04-2019 04:00:00 8.875 C 7.54 g/m*3 8.88 C 0 km/h
6 03-04-2019 05:00:00 8.6 C 7.44 g/m*3 8.6 C 0 km/h
7 03-04-2019 06:00:00 8.075 C 7.3 g/m*3 8.07 C 0.53333 km/h
8 03-04-2019 07:00:00 8.64167 C 7.32 g/m*3 8.64 C 0.53333 km/h
9 03-04-2019 08:00:00 8.86667 C 7.52 g/m*3 8.87 C 3.35833 km/h
10 03-04-2019 09:00:00 7.66667 C 7.32 g/m*3 5.96 C 9.4 km/h
11 03-04-2019 10:00:00 7.025 C 7.11 g/m*3 7.03 C 2.80833 km/h
12 03-04-2019 11:00:00 7.44167 C 7.33 g/m*3 7.44 C 1.2 km/h
13 03-04-2019 12:00:00 8.33333 C 7.51 g/m*3 8.33 C 3.60833 km/h
14 03-04-2019 13:00:00 9.475 C 7.56 g/m*3 9.48 C 3.6 km/h
15 03-04-2019 14:00:00 9.43333 C 7.37 g/m*3 9.43 C 4.54167 km/h
16 03-04-2019 15:00:00 10.05 C 7.52 g/m*3 9.35 C 6.7 km/h
17 03-04-2019 16:00:00 10.2 C 7.47 g/m*3 10.2 C 4.675 km/h
18 03-04-2019 17:00:00 9.45833 C 7.47 g/m*3 9.46 C 2.93333 km/h
19 03-04-2019 18:00:00 7.93333 C 7.42 g/m*3 7.93 C 1.6 km/h
20 03-04-2019 19:00:00 7.025 C 7.2 g/m*3 7.03 C 0.26667 km/h
21 03-04-2019 20:00:00 6.45 C 7 g/m*3 6.45 C 0 km/h
22 03-04-2019 21:00:00 6.23333 C 6.98 g/m*3 6.23 C 0 km/h
23 03-04-2019 22:00:00 5.875 C 6.84 g/m*3 5.88 C 0.13333 km/h
24 03-04-2019 23:00:00 5.63333 C 6.73 g/m*3 5.63 C 0.13333 km/h
25 04-04-2019 00:00:00 5.65 C 6.77 g/m*3 5.65 C 0.4 km/h
Sensor: Nr:Datum:Temp:Abs-Feuchte:Windchill:Wind:
Aussen-T/F 26 04-04-2019 01:00:00 5.325 C 6.64 g/m*3 5.33 C 1.06667 km/h
27 04-04-2019 02:00:00 5.41667 C 6.71 g/m*3 5.42 C 2.13333 km/h
28 04-04-2019 03:00:00 5.6 C 6.79 g/m*3 5.6 C 0 km/h
29 04-04-2019 04:00:00 5.54167 C 6.76 g/m*3 5.54 C 0 km/h
30 04-04-2019 05:00:00 5.60833 C 6.79 g/m*3 5.61 C 0 km/h
31 04-04-2019 06:00:00 5.475 C 6.73 g/m*3 5.48 C 0 km/h
32 04-04-2019 07:00:00 5.34167 C 6.67 g/m*3 5.34 C 0 km/h
33 04-04-2019 08:00:00 5.61667 C 6.79 g/m*3 5.62 C 0 km/h
34 04-04-2019 09:00:00 5.93333 C 6.97 g/m*3 5.93 C 0.66667 km/h
35 04-04-2019 10:00:00 6.075 C 7 g/m*3 6.08 C 1.46667 km/h
36 04-04-2019 11:00:00 6.65833 C 7.07 g/m*3 6.66 C 2.26667 km/h
37 04-04-2019 12:00:00 6.95 C 6.91 g/m*3 6.17 C 5.375 km/h
38 04-04-2019 13:00:00 6.69167 C 6.96 g/m*3 6.69 C 2.80833 km/h
39 04-04-2019 14:00:00 6.4 C 6.84 g/m*3 6.4 C 4.14167 km/h
40 04-04-2019 15:00:00 6.85833 C 6.99 g/m*3 6.86 C 0.4 km/h
41 04-04-2019 16:00:00 7.08333 C 7.09 g/m*3 7.08 C 1.73333 km/h
42 04-04-2019 17:00:00 7.43333 C 7.03 g/m*3 7.43 C 4.55 km/h
43 04-04-2019 18:00:00 7.56667 C 6.85 g/m*3 7.57 C 3.475 km/h
44 04-04-2019 19:00:00 7.25833 C 6.86 g/m*3 7.26 C 1.33333 km/h
45 04-04-2019 20:00:00 5.95833 C 6.64 g/m*3 5.96 C 1.46667 km/h
46 04-04-2019 21:00:00 5.29167 C 6.48 g/m*3 5.29 C 1.33333 km/h
47 04-04-2019 22:00:00 5.08333 C 6.45 g/m*3 5.08 C 0.53333 km/h
48 04-04-2019 23:00:00 4.575 C 6.24 g/m*3 4.58 C 0 km/h
49 05-04-2019 00:00:00 4.10833 C 6.08 g/m*3 4.11 C 0 km/h
50 05-04-2019 01:00:00 3.525 C 5.87 g/m*3 3.53 C 0 km/h
Sensor: Nr:Datum:Temp:Abs-Feuchte:Windchill:Wind:
Aussen-T/F 51 05-04-2019 02:00:00 3.775 C 6.01 g/m*3 3.78 C 0 km/h
52 05-04-2019 03:00:00 3.85833 C 6.05 g/m*3 3.86 C 0 km/h
53 05-04-2019 04:00:00 4.06667 C 6.13 g/m*3 4.07 C 0 km/h
54 05-04-2019 05:00:00 3.93333 C 6.08 g/m*3 3.93 C 0 km/h
55 05-04-2019 06:00:00 3.9 C 6.06 g/m*3 3.9 C 0 km/h
56 05-04-2019 07:00:00 4.13333 C 6.2 g/m*3 4.13 C 0 km/h
57 05-04-2019 08:00:00 4.64167 C 6.44 g/m*3 4.64 C 0 km/h
58 05-04-2019 09:00:00 5.3 C 6.72 g/m*3 5.3 C 3.06667 km/h
59 05-04-2019 10:00:00 5.89167 C 6.89 g/m*3 5.89 C 1.2 km/h
60 05-04-2019 11:00:00 7.16667 C 7.06 g/m*3 6.34 C 5.60833 km/h
61 05-04-2019 12:00:00 8.025 C 7.1 g/m*3 6.87 C 7.23333 km/h
62 05-04-2019 13:00:00 8.19167 C 7.07 g/m*3 8.19 C 4.54167 km/h
63 05-04-2019 14:00:00 8.41667 C 7.1 g/m*3 8.42 C 3.46667 km/h
64 05-04-2019 15:00:00 8.55 C 7.21 g/m*3 8.55 C 4.40833 km/h
65 05-04-2019 16:00:00 8.58333 C 7.32 g/m*3 8.08 C 5.20833 km/h
66 05-04-2019 17:00:00 8.41667 C 7.4 g/m*3 8.42 C 4.14167 km/h
67 05-04-2019 18:00:00 8.3 C 7.49 g/m*3 8.3 C 2.94167 km/h
68 05-04-2019 19:00:00 8.19167 C 7.55 g/m*3 8.19 C 0 km/h
69 05-04-2019 20:00:00 7.925 C 7.55 g/m*3 7.93 C 0 km/h
70 05-04-2019 21:00:00 7.69167 C 7.54 g/m*3 7.69 C 0 km/h
71 05-04-2019 22:00:00 7.61667 C 7.58 g/m*3 7.62 C 0 km/h
72 05-04-2019 23:00:00 7.6 C 7.61 g/m*3 7.6 C 0 km/h
73 06-04-2019 00:00:00 7.45833 C 7.58 g/m*3 7.46 C 0 km/h
74 06-04-2019 01:00:00 7.40833 C 7.63 g/m*3 7.41 C 0 km/h
75 06-04-2019 02:00:00 7.225 C 7.54 g/m*3 7.23 C 0 km/h
Sensor: Nr:Datum:Temp:Abs-Feuchte:Windchill:Wind:
Aussen-T/F 76 06-04-2019 03:00:00 6.14167 C 6.97 g/m*3 6.14 C 2.93333 km/h
77 06-04-2019 04:00:00 5.15833 C 6.57 g/m*3 5.16 C 0.13333 km/h
78 06-04-2019 05:00:00 5.01667 C 6.53 g/m*3 5.02 C 0 km/h
79 06-04-2019 06:00:00 4.675 C 6.4 g/m*3 4.68 C 0 km/h
80 06-04-2019 07:00:00 5.13333 C 6.63 g/m*3 5.13 C 0 km/h
81 06-04-2019 08:00:00 5.71667 C 6.91 g/m*3 5.72 C 0.4 km/h
82 06-04-2019 09:00:00 6.025 C 7.05 g/m*3 6.03 C 0.53333 km/h
83 06-04-2019 10:00:00 7.325 C 7.69 g/m*3 7.33 C 0 km/h
84 06-04-2019 11:00:00 9.825 C 8.4 g/m*3 9.09 C 6.70833 km/h
85 06-04-2019 12:00:00 12.51667 C 8.42 g/m*3 12.52 C 5.89167 km/h
86 06-04-2019 13:00:00 14.375 C 8.5 g/m*3 14.38 C 8.325 km/h
87 06-04-2019 14:00:00 16.04167 C 8.47 g/m*3 16.04 C 8.85 km/h
88 06-04-2019 15:00:00 15.96667 C 8.24 g/m*3 15.97 C 9.40833 km/h
89 06-04-2019 16:00:00 15.81667 C 8.31 g/m*3 15.82 C 7.925 km/h
90 06-04-2019 17:00:00 16.30833 C 8.41 g/m*3 16.31 C 8.05833 km/h
91 06-04-2019 18:00:00 17.31667 C 8.61 g/m*3 17.32 C 6.175 km/h
92 06-04-2019 19:00:00 16.46667 C 9.06 g/m*3 16.47 C 0.53333 km/h
93 06-04-2019 20:00:00 12.50833 C 8.76 g/m*3 12.51 C 0 km/h
94 06-04-2019 21:00:00 11.1 C 8.53 g/m*3 11.1 C 0 km/h
95 06-04-2019 22:00:00 10.05 C 8.28 g/m*3 10.05 C 0 km/h
96 06-04-2019 23:00:00 9.3 C 8.04 g/m*3 9.3 C 0 km/h
97 07-04-2019 00:00:00 8.40833 C 7.77 g/m*3 8.41 C 0 km/h
98 07-04-2019 01:00:00 7.75833 C 7.54 g/m*3 7.76 C 0 km/h
99 07-04-2019 02:00:00 7.175 C 7.34 g/m*3 7.18 C 0 km/h
100 07-04-2019 03:00:00 6.775 C 7.23 g/m*3 6.78 C 0 km/h
Sensor: Nr:Datum:Temp:Abs-Feuchte:Windchill:Wind:
Aussen-T/F 101 07-04-2019 04:00:00 6.09167 C 6.91 g/m*3 6.09 C 0 km/h
102 07-04-2019 05:00:00 5.68333 C 6.75 g/m*3 5.68 C 0 km/h
103 07-04-2019 06:00:00 5.43333 C 6.71 g/m*3 5.43 C 0 km/h
104 07-04-2019 07:00:00 4.68333 C 6.37 g/m*3 4.68 C 0 km/h
105 07-04-2019 08:00:00 5.23333 C 6.64 g/m*3 5.23 C 0 km/h
106 07-04-2019 09:00:00 6.14167 C 7.11 g/m*3 6.14 C 0.4 km/h
107 07-04-2019 10:00:00 8.25 C 8.16 g/m*3 8.25 C 0.4 km/h
108 07-04-2019 11:00:00 12.725 C 8.8 g/m*3 12.73 C 10.08333 km/h
109 07-04-2019 12:00:00 15.79167 C 7.95 g/m*3 15.79 C 12.75833 km/h
110 07-04-2019 13:00:00 17.00833 C 7.47 g/m*3 17.01 C 11.15833 km/h
111 07-04-2019 14:00:00 18.25833 C 7.16 g/m*3 18.26 C 16.9 km/h
112 07-04-2019 15:00:00 19.13333 C 6.83 g/m*3 19.13 C 12.225 km/h
113 07-04-2019 16:00:00 20 C 6.81 g/m*3 20 C 11.68333 km/h
114 07-04-2019 17:00:00 20.88333 C 7.02 g/m*3 20.88 C 8.31667 km/h
115 07-04-2019 18:00:00 19.09167 C 7.91 g/m*3 19.09 C 5.775 km/h
116 07-04-2019 19:00:00 16.95 C 8.97 g/m*3 16.95 C 0.13333 km/h
117 07-04-2019 20:00:00 15.14167 C 8.86 g/m*3 15.14 C 2.8 km/h
118 07-04-2019 21:00:00 14.49167 C 8.9 g/m*3 14.49 C 0.8 km/h
119 07-04-2019 22:00:00 13.95 C 8.9 g/m*3 13.95 C 0 km/h
120 07-04-2019 23:00:00 13.44167 C 9.12 g/m*3 13.44 C 0 km/h
121 08-04-2019 00:00:00 12.95 C 9.18 g/m*3 12.95 C 0.13333 km/h
122 08-04-2019 01:00:00 12.53333 C 9.12 g/m*3 12.53 C 0.13333 km/h
123 08-04-2019 02:00:00 11.975 C 8.98 g/m*3 11.98 C 0.26667 km/h
124 08-04-2019 03:00:00 11.60833 C 8.9 g/m*3 11.61 C 0.8 km/h
125 08-04-2019 04:00:00 11.23333 C 8.83 g/m*3 11.23 C 0.13333 km/h
Sensor: Nr:Datum:Temp:Abs-Feuchte:Windchill:Wind:
Aussen-T/F 126 08-04-2019 05:00:00 11.06667 C 8.85 g/m*3 11.07 C 0.13333 km/h
127 08-04-2019 06:00:00 10.66667 C 8.69 g/m*3 10.67 C 0.13333 km/h
128 08-04-2019 07:00:00 10.025 C 8.5 g/m*3 10.03 C 0 km/h
129 08-04-2019 08:00:00 10.425 C 8.87 g/m*3 10.43 C 0 km/h
130 08-04-2019 09:00:00 11.5 C 9.16 g/m*3 11.5 C 1.46667 km/h
131 08-04-2019 10:00:00 12.45833 C 9.29 g/m*3 12.46 C 1.6 km/h
132 08-04-2019 11:00:00 13.16667 C 9.47 g/m*3 13.17 C 1.46667 km/h
133 08-04-2019 12:00:00 13.15 C 9.54 g/m*3 13.15 C 1.2 km/h
134 08-04-2019 13:00:00 13.48333 C 9.73 g/m*3 13.48 C 1.06667 km/h
135 08-04-2019 14:00:00 15.05 C 9.93 g/m*3 15.05 C 3.73333 km/h
136 08-04-2019 15:00:00 16.80833 C 9.88 g/m*3 16.81 C 6.55833 km/h
137 08-04-2019 16:00:00 17.05833 C 9.84 g/m*3 17.06 C 2.93333 km/h
138 08-04-2019 17:00:00 15.05 C 10.8 g/m*3 15.05 C 0.53333 km/h
139 08-04-2019 18:00:00 14.35833 C 10.75 g/m*3 14.36 C 0.93333 km/h
140 08-04-2019 19:00:00 13.84167 C 10.29 g/m*3 13.84 C 1.6 km/h
141 08-04-2019 20:00:00 12.875 C 10.06 g/m*3 12.88 C 0.4 km/h
142 08-04-2019 21:00:00 11.425 C 9.52 g/m*3 11.43 C 3.86667 km/h
143 08-04-2019 22:00:00 11.1 C 9.53 g/m*3 11.1 C 1.06667 km/h
144 08-04-2019 23:00:00 10.93333 C 9.45 g/m*3 10.93 C 0.53333 km/h
145 09-04-2019 00:00:00 10.20833 C 9.04 g/m*3 10.21 C 0.93333 km/h
146 09-04-2019 01:00:00 10.16667 C 9.08 g/m*3 10.17 C 0.26667 km/h
147 09-04-2019 02:00:00 10.44167 C 9.28 g/m*3 10.44 C 0 km/h
148 09-04-2019 03:00:00 10.15833 C 9.11 g/m*3 10.16 C 0 km/h
149 09-04-2019 04:00:00 9.73333 C 8.87 g/m*3 9.73 C 0 km/h
150 09-04-2019 05:00:00 9.025 C 8.48 g/m*3 9.03 C 0 km/h
Sensor: Nr:Datum:Temp:Abs-Feuchte:Windchill:Wind:
Aussen-T/F 151 09-04-2019 06:00:00 8.94167 C 8.47 g/m*3 8.94 C 0 km/h
152 09-04-2019 07:00:00 9.30833 C 8.72 g/m*3 9.31 C 0 km/h
153 09-04-2019 08:00:00 9.875 C 9.04 g/m*3 9.88 C 0 km/h
154 09-04-2019 09:00:00 10.50833 C 9.41 g/m*3 10.51 C 0.53333 km/h
155 09-04-2019 10:00:00 11.09167 C 9.65 g/m*3 11.09 C 1.2 km/h
156 09-04-2019 11:00:00 11.90833 C 10.03 g/m*3 11.91 C 2.13333 km/h
157 09-04-2019 12:00:00 12.83333 C 10.38 g/m*3 12.83 C 1.2 km/h
158 09-04-2019 13:00:00 14.475 C 10.69 g/m*3 14.48 C 3.2 km/h
159 09-04-2019 14:00:00 16.075 C 10.8 g/m*3 16.08 C 6.83333 km/h
160 09-04-2019 15:00:00 16.325 C 10.83 g/m*3 16.33 C 5.49167 km/h
161 09-04-2019 16:00:00 16.08333 C 10.79 g/m*3 16.08 C 5.475 km/h
162 09-04-2019 17:00:00 15.85 C 10.69 g/m*3 15.85 C 0.66667 km/h
163 09-04-2019 18:00:00 15.4 C 10.9 g/m*3 15.4 C 0.13333 km/h
164 09-04-2019 19:00:00 14.58333 C 10.17 g/m*3 14.58 C 2.80833 km/h
165 09-04-2019 20:00:00 13.625 C 9.69 g/m*3 13.63 C 0.93333 km/h
166 09-04-2019 21:00:00 12.48333 C 9.24 g/m*3 12.48 C 0.4 km/h
167 09-04-2019 22:00:00 12.36667 C 8.16 g/m*3 12.37 C 4.53333 km/h
168 09-04-2019 23:00:00 12.16667 C 7.6 g/m*3 12.17 C 7.38333 km/h
169 10-04-2019 00:00:00 10.925 C 7.85 g/m*3 10.93 C 2.94167 km/h
170 10-04-2019 01:00:00 10.36667 C 7.52 g/m*3 10.37 C 4.28333 km/h
171 10-04-2019 02:00:00 9.91667 C 7.56 g/m*3 9.92 C 1.6 km/h
172 10-04-2019 03:00:00 9.775 C 7.29 g/m*3 9.78 C 3.35 km/h
173 10-04-2019 04:00:00 8.79167 C 7.06 g/m*3 8.79 C 0.53333 km/h
174 10-04-2019 05:00:00 7.34167 C 6.71 g/m*3 7.34 C 0.53333 km/h
175 10-04-2019 06:00:00 6.50833 C 6.47 g/m*3 6.51 C 0.66667 km/h
Sensor: Nr:Datum:Temp:Abs-Feuchte:Windchill:Wind:
Aussen-T/F 176 10-04-2019 07:00:00 6.6 C 6.37 g/m*3 6.6 C 0.26667 km/h
177 10-04-2019 08:00:00 7.675 C 6.24 g/m*3 6.99 C 5.36667 km/h
178 10-04-2019 09:00:00 8.50833 C 6.14 g/m*3 6.74 C 10.625 km/h
179 10-04-2019 10:00:00 9.575 C 6.31 g/m*3 7.82 C 11.83333 km/h
180 10-04-2019 11:00:00 11.18333 C 6.41 g/m*3 11.18 C 12.9 km/h
181 10-04-2019 12:00:00 12.16667 C 6.12 g/m*3 12.17 C 11.01667 km/h
182 10-04-2019 13:00:00 13.425 C 6.32 g/m*3 13.43 C 9.94167 km/h
183 10-04-2019 14:00:00 14.24167 C 6.08 g/m*3 14.24 C 12.76667 km/h
184 10-04-2019 15:00:00 15.1 C 6.04 g/m*3 15.1 C 13.43333 km/h
185 10-04-2019 16:00:00 16.075 C 6.01 g/m*3 16.08 C 13.825 km/h
186 10-04-2019 17:00:00 16.6 C 5.79 g/m*3 16.6 C 12.35833 km/h
187 10-04-2019 18:00:00 15.94167 C 5.17 g/m*3 15.94 C 14.5 km/h
188 10-04-2019 19:00:00 14.4 C 5.28 g/m*3 14.4 C 14.9 km/h
189 10-04-2019 20:00:00 11.34167 C 5.8 g/m*3 11.34 C 3.20833 km/h
190 10-04-2019 21:00:00 8.9 C 5.88 g/m*3 8.9 C 2.13333 km/h
191 10-04-2019 22:00:00 7.38333 C 5.81 g/m*3 7.38 C 0.4 km/h
192 10-04-2019 23:00:00 6.46667 C 5.71 g/m*3 6.47 C 0.66667 km/h
193 11-04-2019 00:00:00 5.75 C 5.52 g/m*3 5.75 C 1.34167 km/h
194 11-04-2019 01:00:00 5.03333 C 5.31 g/m*3 5.03 C 0.53333 km/h
195 11-04-2019 02:00:00 4.4 C 5.15 g/m*3 4.4 C 1.2 km/h
196 11-04-2019 03:00:00 3.85833 C 4.98 g/m*3 3.86 C 0 km/h
197 11-04-2019 04:00:00 2.9 C 4.76 g/m*3 2.9 C 0 km/h
198 11-04-2019 05:00:00 2.30833 C 4.64 g/m*3 2.31 C 0.26667 km/h
199 11-04-2019 06:00:00 1.71667 C 4.54 g/m*3 1.72 C 0 km/h
200 11-04-2019 07:00:00 1.21667 C 4.49 g/m*3 1.22 C 0 km/h
Sensor: Nr:Datum:Temp:Abs-Feuchte:Windchill:Wind:
Aussen-T/F 201 11-04-2019 08:00:00 1.8 C 4.69 g/m*3 1.8 C 0 km/h
202 11-04-2019 09:00:00 3.9 C 4.89 g/m*3 3.9 C 4.69167 km/h
203 11-04-2019 10:00:00 6.76667 C 4.43 g/m*3 3.92 C 15.03333 km/h
204 11-04-2019 11:00:00 8.1 C 4.14 g/m*3 5.23 C 17.70833 km/h
205 11-04-2019 12:00:00 8.91667 C 4.03 g/m*3 6.41 C 16.36667 km/h
206 11-04-2019 13:00:00 9.875 C 4.05 g/m*3 7.86 C 14.23333 km/h
207 11-04-2019 14:00:00 11.01667 C 4.09 g/m*3 11.02 C 16.5 km/h
208 11-04-2019 15:00:00 12 C 4.13 g/m*3 12 C 17.175 km/h
209 11-04-2019 16:00:00 12.76667 C 4.04 g/m*3 12.77 C 16.36667 km/h
210 11-04-2019 17:00:00 13.31667 C 4.02 g/m*3 13.32 C 14.76667 km/h
211 11-04-2019 18:00:00 13.025 C 3.99 g/m*3 13.03 C 11.41667 km/h
212 11-04-2019 19:00:00 11.95833 C 4.06 g/m*3 11.96 C 7.65833 km/h
213 11-04-2019 20:00:00 8.95 C 4.36 g/m*3 8.95 C 2.4 km/h
214 11-04-2019 21:00:00 6.225 C 4.52 g/m*3 6.23 C 2.26667 km/h
215 11-04-2019 22:00:00 5.35 C 4.45 g/m*3 5.35 C 2.80833 km/h
216 11-04-2019 23:00:00 5.48333 C 4.26 g/m*3 5.48 C 3.75 km/h
217 12-04-2019 00:00:00 4.46667 C 4.12 g/m*3 3.34 C 5.35 km/h
218 12-04-2019 01:00:00 3.54167 C 4.03 g/m*3 3.54 C 3.34167 km/h
219 12-04-2019 02:00:00 2.15833 C 4.03 g/m*3 2.16 C 2.53333 km/h
220 12-04-2019 03:00:00 1.60833 C 3.98 g/m*3 1.61 C 3.06667 km/h
221 12-04-2019 04:00:00 2.15833 C 4.23 g/m*3 2.16 C 0.66667 km/h
222 12-04-2019 05:00:00 2.70833 C 4.27 g/m*3 2.71 C 0 km/h
223 12-04-2019 06:00:00 2.98333 C 4.21 g/m*3 2.98 C 0 km/h
224 12-04-2019 07:00:00 3.475 C 4.1 g/m*3 3.48 C 3.075 km/h
225 12-04-2019 08:00:00 4.63333 C 3.85 g/m*3 1.97 C 11.16667 km/h
Sensor: Nr:Datum:Temp:Abs-Feuchte:Windchill:Wind:
Aussen-T/F 226 12-04-2019 09:00:00 5.03333 C 3.82 g/m*3 2.3 C 11.95833 km/h
227 12-04-2019 10:00:00 5.49167 C 3.74 g/m*3 1.91 C 18.23333 km/h
228 12-04-2019 11:00:00 5.98333 C 3.76 g/m*3 2.37 C 19.43333 km/h
229 12-04-2019 12:00:00 6.78333 C 3.82 g/m*3 4.08 C 14.09167 km/h
230 12-04-2019 13:00:00 7.15833 C 3.74 g/m*3 4.9 C 11.825 km/h
231 12-04-2019 14:00:00 7.26667 C 3.69 g/m*3 4.83 C 13.03333 km/h
232 12-04-2019 15:00:00 7.56667 C 3.73 g/m*3 5.26 C 12.63333 km/h
233 12-04-2019 16:00:00 7.3 C 3.74 g/m*3 5.16 C 11.3 km/h
234 12-04-2019 17:00:00 7.1 C 3.64 g/m*3 5.46 C 8.61667 km/h
235 12-04-2019 18:00:00 6.83333 C 3.76 g/m*3 4.53 C 11.7 km/h
236 12-04-2019 19:00:00 6.525 C 3.91 g/m*3 4.41 C 10.35833 km/h
237 12-04-2019 20:00:00 6.06667 C 4 g/m*3 4.3 C 8.34167 km/h
238 12-04-2019 21:00:00 5.55 C 4.25 g/m*3 4.34 C 6.04167 km/h
239 12-04-2019 22:00:00 4.39167 C 4.34 g/m*3 4.39 C 0.26667 km/h
240 12-04-2019 23:00:00 3.58333 C 4.25 g/m*3 3.58 C 0.13333 km/h
241 13-04-2019 00:00:00 2.95 C 4.3 g/m*3 2.95 C 0.66667 km/h
242 13-04-2019 01:00:00 2.875 C 4.31 g/m*3 2.88 C 2.13333 km/h
243 13-04-2019 02:00:00 2.61667 C 4.39 g/m*3 2.62 C 1.6 km/h
244 13-04-2019 03:00:00 2.30833 C 4.42 g/m*3 2.31 C 0.26667 km/h
245 13-04-2019 04:00:00 2.6 C 4.48 g/m*3 2.6 C 2.275 km/h
246 13-04-2019 05:00:00 2.54167 C 4.5 g/m*3 2.54 C 0.4 km/h
247 13-04-2019 06:00:00 2.28333 C 4.56 g/m*3 2.28 C 0.93333 km/h
248 13-04-2019 07:00:00 2.5 C 4.6 g/m*3 2.5 C 2 km/h
249 13-04-2019 08:00:00 3.125 C 4.63 g/m*3 1.24 C 6.975 km/h
250 13-04-2019 09:00:00 3.60833 C 4.54 g/m*3 1.68 C 7.375 km/h
Sensor: Nr:Datum:Temp:Abs-Feuchte:Windchill:Wind:
Aussen-T/F 251 13-04-2019 10:00:00 4.75833 C 4.42 g/m*3 2.83 C 8.075 km/h
252 13-04-2019 11:00:00 5.36667 C 4.25 g/m*3 3.66 C 7.65 km/h
253 13-04-2019 12:00:00 5.96667 C 4.15 g/m*3 3.58 C 11.15 km/h
254 13-04-2019 13:00:00 5.75833 C 4.51 g/m*3 3.55 C 10.075 km/h
255 13-04-2019 14:00:00 4.69167 C 5.15 g/m*3 2.3 C 9.93333 km/h
256 13-04-2019 15:00:00 5.61667 C 5.3 g/m*3 3.85 C 8.05 km/h
257 13-04-2019 16:00:00 6.21667 C 5.06 g/m*3 3.51 C 13.29167 km/h
258 13-04-2019 17:00:00 4.55 C 5.59 g/m*3 3.33 C 5.63333 km/h
259 13-04-2019 18:00:00 6.29167 C 5.7 g/m*3 6.29 C 4.28333 km/h
260 13-04-2019 19:00:00 5.59167 C 5.48 g/m*3 5.59 C 1.73333 km/h
261 13-04-2019 20:00:00 4.63333 C 5.35 g/m*3 4.63 C 2.54167 km/h
262 13-04-2019 21:00:00 3.075 C 5 g/m*3 3.08 C 0 km/h
263 13-04-2019 22:00:00 1.56667 C 4.72 g/m*3 1.57 C 0 km/h
264 13-04-2019 23:00:00 1.04167 C 4.68 g/m*3 1.04 C 0 km/h
265 14-04-2019 00:00:00 0.475 C 4.56 g/m*3 0.48 C 0 km/h
266 14-04-2019 01:00:00 0.45 C 4.63 g/m*3 0.45 C 0 km/h
267 14-04-2019 02:00:00 1.23333 C 4.92 g/m*3 1.23 C 0.13333 km/h
268 14-04-2019 03:00:00 1.575 C 5.02 g/m*3 1.58 C 0.53333 km/h
269 14-04-2019 04:00:00 1.63333 C 5.04 g/m*3 1.63 C 0.26667 km/h
270 14-04-2019 05:00:00 1.56667 C 5.05 g/m*3 1.57 C 0.66667 km/h
271 14-04-2019 06:00:00 1.25833 C 4.97 g/m*3 1.26 C 0 km/h
272 14-04-2019 07:00:00 1.225 C 5.01 g/m*3 1.23 C 0 km/h
273 14-04-2019 08:00:00 1.5 C 5.11 g/m*3 1.5 C 0 km/h
274 14-04-2019 09:00:00 2.66667 C 5.57 g/m*3 2.67 C 0.13333 km/h
275 14-04-2019 10:00:00 4.15 C 6.06 g/m*3 4.15 C 4.69167 km/h
Sensor: Nr:Datum:Temp:Abs-Feuchte:Windchill:Wind:
Aussen-T/F 276 14-04-2019 11:00:00 6.00833 C 6.14 g/m*3 4.71 C 6.575 km/h
277 14-04-2019 12:00:00 7.71667 C 5.62 g/m*3 5.62 C 11.55833 km/h
278 14-04-2019 13:00:00 8.99167 C 5.14 g/m*3 7.21 C 11.275 km/h
279 14-04-2019 14:00:00 10.43333 C 5.05 g/m*3 8.63 C 13.56667 km/h
280 14-04-2019 15:00:00 11.46667 C 4.99 g/m*3 11.47 C 12.89167 km/h
281 14-04-2019 16:00:00 12.08333 C 4.9 g/m*3 12.08 C 12.63333 km/h
282 14-04-2019 17:00:00 12.50833 C 4.81 g/m*3 12.51 C 13.69167 km/h
283 14-04-2019 18:00:00 12.06667 C 4.87 g/m*3 12.07 C 12.625 km/h
284 14-04-2019 19:00:00 10.99167 C 5.18 g/m*3 9.87 C 9.66667 km/h
285 14-04-2019 20:00:00 8.25 C 5.41 g/m*3 8.25 C 2.40833 km/h
286 14-04-2019 21:00:00 5.925 C 5.5 g/m*3 5.93 C 2.14167 km/h
287 14-04-2019 22:00:00 4.61667 C 5.42 g/m*3 4.62 C 1.86667 km/h
288 14-04-2019 23:00:00 4.06667 C 5.39 g/m*3 4.07 C 1.6 km/h
289 15-04-2019 00:00:00 4.11667 C 5.51 g/m*3 4.12 C 0.93333 km/h
290 15-04-2019 01:00:00 5.075 C 5.83 g/m*3 5.08 C 0.53333 km/h
291 15-04-2019 02:00:00 5.64167 C 5.91 g/m*3 5.64 C 0.26667 km/h
292 15-04-2019 03:00:00 4.81667 C 5.71 g/m*3 4.82 C 0.66667 km/h
293 15-04-2019 04:00:00 4.78333 C 5.81 g/m*3 4.78 C 0 km/h
294 15-04-2019 05:00:00 4.26667 C 5.68 g/m*3 4.27 C 0.4 km/h
295 15-04-2019 06:00:00 4.48333 C 5.87 g/m*3 4.48 C 0 km/h
296 15-04-2019 07:00:00 5.1 C 6.13 g/m*3 5.1 C 0 km/h
297 15-04-2019 08:00:00 5.98333 C 6.38 g/m*3 5.98 C 2.14167 km/h
298 15-04-2019 09:00:00 7.175 C 6.61 g/m*3 5.98 C 6.84167 km/h
299 15-04-2019 10:00:00 8.34167 C 6.78 g/m*3 6.68 C 9.83333 km/h
300 15-04-2019 11:00:00 10.15833 C 7.1 g/m*3 9.48 C 6.70833 km/h
Sensor: Nr:Datum:Temp:Abs-Feuchte:Windchill:Wind:
Aussen-T/F 301 15-04-2019 12:00:00 12.475 C 7.23 g/m*3 12.48 C 13.025 km/h
302 15-04-2019 13:00:00 14.29167 C 7.15 g/m*3 14.29 C 15.16667 km/h
303 15-04-2019 14:00:00 16.025 C 7.25 g/m*3 16.02 C 14.23333 km/h
304 15-04-2019 15:00:00 17.53333 C 6.95 g/m*3 17.53 C 16.63333 km/h
305 15-04-2019 16:00:00 18.31667 C 7 g/m*3 18.32 C 14.75833 km/h
306 15-04-2019 17:00:00 18.95833 C 6.68 g/m*3 18.96 C 11.7 km/h
307 15-04-2019 18:00:00 19.13333 C 6.32 g/m*3 19.13 C 11.95833 km/h
308 15-04-2019 19:00:00 18.19167 C 6.42 g/m*3 18.19 C 5.89167 km/h
309 15-04-2019 20:00:00 14.2 C 6.99 g/m*3 14.2 C 3.6 km/h
310 15-04-2019 21:00:00 11.575 C 6.81 g/m*3 11.58 C 3.6 km/h
311 15-04-2019 22:00:00 10.24167 C 6.5 g/m*3 10.24 C 0.53333 km/h
312 15-04-2019 23:00:00 9.24167 C 6.19 g/m*3 9.24 C 3.6 km/h
313 16-04-2019 00:00:00 8.16667 C 5.98 g/m*3 8.17 C 4.66667 km/h
314 16-04-2019 01:00:00 7.25833 C 5.82 g/m*3 7.26 C 2.93333 km/h
315 16-04-2019 02:00:00 6.48333 C 5.69 g/m*3 6.48 C 2.53333 km/h
316 16-04-2019 03:00:00 6.06667 C 5.55 g/m*3 6.07 C 2 km/h
317 16-04-2019 04:00:00 5.83333 C 5.4 g/m*3 5.83 C 2.66667 km/h
318 16-04-2019 05:00:00 5.50833 C 5.35 g/m*3 5.51 C 2.93333 km/h
319 16-04-2019 06:00:00 4.99167 C 5.27 g/m*3 4.99 C 1.46667 km/h
320 16-04-2019 07:00:00 3.91667 C 5.23 g/m*3 3.92 C 0 km/h
321 16-04-2019 08:00:00 4.51667 C 5.48 g/m*3 4.52 C 0.4 km/h
322 16-04-2019 09:00:00 6.2 C 5.94 g/m*3 6.2 C 0.66667 km/h
323 16-04-2019 10:00:00 10.39167 C 6.13 g/m*3 10.39 C 3.875 km/h
324 16-04-2019 11:00:00 13.69167 C 6.06 g/m*3 13.69 C 6.85833 km/h
325 16-04-2019 12:00:00 15.59167 C 6.26 g/m*3 15.59 C 9.28333 km/h
Sensor: Nr:Datum:Temp:Abs-Feuchte:Windchill:Wind:
Aussen-T/F 326 16-04-2019 13:00:00 17.025 C 6.68 g/m*3 17.02 C 9.41667 km/h
327 16-04-2019 14:00:00 18.3 C 7.24 g/m*3 18.3 C 9.14167 km/h
328 16-04-2019 15:00:00 19.025 C 7.4 g/m*3 19.02 C 8.45833 km/h
329 16-04-2019 16:00:00 18.85833 C 7.5 g/m*3 18.86 C 7.24167 km/h
330 16-04-2019 17:00:00 18.09167 C 8.11 g/m*3 18.09 C 16.36667 km/h
331 16-04-2019 18:00:00 15.5 C 8.21 g/m*3 15.5 C 12.1 km/h
332 16-04-2019 19:00:00 14.63333 C 8.39 g/m*3 14.63 C 2.55 km/h
333 16-04-2019 20:00:00 13.25833 C 8.37 g/m*3 13.26 C 0.13333 km/h
334 16-04-2019 21:00:00 12.29167 C 8.25 g/m*3 12.29 C 0.8 km/h
335 16-04-2019 22:00:00 11.825 C 8.35 g/m*3 11.83 C 0.66667 km/h
336 16-04-2019 23:00:00 11.475 C 8.29 g/m*3 11.48 C 0 km/h
337 17-04-2019 00:00:00 11.01667 C 8.31 g/m*3 11.02 C 0 km/h
338 17-04-2019 01:00:00 10.725 C 8.68 g/m*3 10.73 C 1.86667 km/h
339 17-04-2019 02:00:00 10.25833 C 8.74 g/m*3 10.26 C 0.26667 km/h
340 17-04-2019 03:00:00 9.91667 C 8.72 g/m*3 9.92 C 0 km/h
341 17-04-2019 04:00:00 9.73333 C 8.71 g/m*3 9.73 C 0 km/h
342 17-04-2019 05:00:00 9.60833 C 8.71 g/m*3 9.61 C 0 km/h
343 17-04-2019 06:00:00 9.66667 C 8.77 g/m*3 9.67 C 0 km/h
344 17-04-2019 07:00:00 10 C 9.02 g/m*3 10 C 0.4 km/h
345 17-04-2019 08:00:00 10.64167 C 9.39 g/m*3 10.64 C 2.275 km/h
346 17-04-2019 09:00:00 11.36667 C 9.81 g/m*3 11.37 C 3.2 km/h
347 17-04-2019 10:00:00 12.30833 C 10.16 g/m*3 12.31 C 2.675 km/h
348 17-04-2019 11:00:00 13.04167 C 10.32 g/m*3 13.04 C 4.80833 km/h
349 17-04-2019 12:00:00 13.675 C 10.3 g/m*3 13.68 C 5.23333 km/h
350 17-04-2019 13:00:00 14.88333 C 10.47 g/m*3 14.88 C 6.98333 km/h
Sensor: Nr:Datum:Temp:Abs-Feuchte:Windchill:Wind:
Aussen-T/F 351 17-04-2019 14:00:00 16.18333 C 10.25 g/m*3 16.18 C 7.24167 km/h
352 17-04-2019 15:00:00 17.19167 C 10.21 g/m*3 17.19 C 7.9 km/h
353 17-04-2019 16:00:00 18.00833 C 9.67 g/m*3 18.01 C 13.01667 km/h
354 17-04-2019 17:00:00 18.225 C 9.74 g/m*3 18.23 C 7.91667 km/h
355 17-04-2019 18:00:00 18.16667 C 9.51 g/m*3 18.17 C 5.24167 km/h
356 17-04-2019 19:00:00 16.38333 C 10.26 g/m*3 16.38 C 0 km/h
357 17-04-2019 20:00:00 13.575 C 9.15 g/m*3 13.58 C 2.13333 km/h
358 17-04-2019 21:00:00 11.65 C 8.36 g/m*3 11.65 C 3.2 km/h
359 17-04-2019 22:00:00 10.36667 C 8 g/m*3 10.37 C 0 km/h
360 17-04-2019 23:00:00 9.375 C 7.68 g/m*3 9.38 C 0 km/h
361 18-04-2019 00:00:00 8.70833 C 7.58 g/m*3 8.71 C 0 km/h
362 18-04-2019 01:00:00 8.75833 C 7.65 g/m*3 8.76 C 0 km/h
363 18-04-2019 02:00:00 8.55 C 7.51 g/m*3 8.55 C 0 km/h
364 18-04-2019 03:00:00 8.01667 C 7.15 g/m*3 8.02 C 0 km/h
365 18-04-2019 04:00:00 7.16667 C 6.89 g/m*3 7.17 C 0 km/h
366 18-04-2019 05:00:00 6.875 C 6.9 g/m*3 6.88 C 0 km/h
367 18-04-2019 06:00:00 6.76667 C 6.9 g/m*3 6.77 C 0 km/h
368 18-04-2019 07:00:00 7.44167 C 7.08 g/m*3 7.44 C 0 km/h
369 18-04-2019 08:00:00 8.475 C 7.49 g/m*3 8.48 C 0 km/h
370 18-04-2019 09:00:00 9.88333 C 7.78 g/m*3 9.88 C 2 km/h
371 18-04-2019 10:00:00 12.95 C 8.06 g/m*3 12.95 C 7.38333 km/h
372 18-04-2019 11:00:00 16.38333 C 7.92 g/m*3 16.38 C 10.60833 km/h
373 18-04-2019 12:00:00 17.65833 C 7.83 g/m*3 17.66 C 12.20833 km/h
374 18-04-2019 13:00:00 18.76667 C 7.61 g/m*3 18.77 C 12.76667 km/h
375 18-04-2019 14:00:00 19.91667 C 7.29 g/m*3 19.92 C 15.03333 km/h
Sensor: Nr:Datum:Temp:Abs-Feuchte:Windchill:Wind:
Aussen-T/F 376 18-04-2019 15:00:00 21.35 C 7.23 g/m*3 21.35 C 14.63333 km/h
377 18-04-2019 16:00:00 22.525 C 6.83 g/m*3 22.53 C 13.7 km/h
378 18-04-2019 17:00:00 23.375 C 6.88 g/m*3 23.38 C 12.35833 km/h
379 18-04-2019 18:00:00 23.40833 C 6.89 g/m*3 23.41 C 10.48333 km/h
380 18-04-2019 19:00:00 22.28333 C 7.18 g/m*3 22.28 C 6.04167 km/h
381 18-04-2019 20:00:00 18.05833 C 8.09 g/m*3 18.06 C 4 km/h
382 18-04-2019 21:00:00 15.33333 C 7.77 g/m*3 15.33 C 4.8 km/h
383 18-04-2019 22:00:00 14.23333 C 7.54 g/m*3 14.23 C 4.8 km/h
384 18-04-2019 23:00:00 13.08333 C 7.44 g/m*3 13.08 C 2.4 km/h
385 19-04-2019 00:00:00 11.55833 C 7.45 g/m*3 11.56 C 0 km/h
386 19-04-2019 01:00:00 10.70833 C 7.37 g/m*3 10.71 C 0.26667 km/h
387 19-04-2019 02:00:00 11.01667 C 7.17 g/m*3 11.02 C 3.33333 km/h
388 19-04-2019 03:00:00 10.29167 C 7.05 g/m*3 10.29 C 1.86667 km/h
389 19-04-2019 04:00:00 9.61667 C 6.99 g/m*3 9.62 C 0.13333 km/h
390 19-04-2019 05:00:00 8.24167 C 6.84 g/m*3 8.24 C 0 km/h
391 19-04-2019 06:00:00 7.04167 C 6.51 g/m*3 7.04 C 0 km/h
392 19-04-2019 07:00:00 6.65 C 6.58 g/m*3 6.65 C 0 km/h
393 19-04-2019 08:00:00 6.85 C 6.8 g/m*3 6.85 C 0 km/h
394 19-04-2019 09:00:00 8.975 C 7.61 g/m*3 8.98 C 0.66667 km/h
395 19-04-2019 10:00:00 13.525 C 7.82 g/m*3 13.53 C 7.66667 km/h
396 19-04-2019 11:00:00 17.95833 C 7.47 g/m*3 17.96 C 14.1 km/h
397 19-04-2019 12:00:00 19.9 C 7.13 g/m*3 19.9 C 13.7 km/h
398 19-04-2019 13:00:00 21.36667 C 6.41 g/m*3 21.37 C 12.35 km/h
399 19-04-2019 14:00:00 22.44167 C 6.24 g/m*3 22.44 C 15.43333 km/h
400 19-04-2019 15:00:00 23.675 C 5.75 g/m*3 23.68 C 14.63333 km/h
Sensor: Nr:Datum:Temp:Abs-Feuchte:Windchill:Wind:
Aussen-T/F 401 19-04-2019 16:00:00 24.89167 C 5.51 g/m*3 24.89 C 13.825 km/h
402 19-04-2019 17:00:00 25.28333 C 5.26 g/m*3 25.28 C 12.76667 km/h
403 19-04-2019 18:00:00 25.50833 C 5.29 g/m*3 25.51 C 9.83333 km/h
404 19-04-2019 19:00:00 24.25 C 5.77 g/m*3 24.25 C 4.95833 km/h
405 19-04-2019 20:00:00 19.21667 C 6.74 g/m*3 19.22 C 4.66667 km/h
406 19-04-2019 21:00:00 15.875 C 6.68 g/m*3 15.88 C 2.93333 km/h
407 19-04-2019 22:00:00 13.33333 C 6.74 g/m*3 13.33 C 0.8 km/h
408 19-04-2019 23:00:00 11.73333 C 6.73 g/m*3 11.73 C 1.2 km/h
409 20-04-2019 00:00:00 10.40833 C 6.81 g/m*3 10.41 C 0.4 km/h
410 20-04-2019 01:00:00 9.45833 C 6.91 g/m*3 9.46 C 0 km/h
411 20-04-2019 02:00:00 8.55833 C 6.93 g/m*3 8.56 C 0 km/h
412 20-04-2019 03:00:00 7.64167 C 6.79 g/m*3 7.64 C 0 km/h
413 20-04-2019 04:00:00 6.85 C 6.68 g/m*3 6.85 C 0 km/h
414 20-04-2019 05:00:00 6.23333 C 6.58 g/m*3 6.23 C 0 km/h
415 20-04-2019 06:00:00 5.775 C 6.48 g/m*3 5.78 C 0 km/h
416 20-04-2019 07:00:00 5.85833 C 6.61 g/m*3 5.86 C 0.13333 km/h
417 20-04-2019 08:00:00 6.48333 C 6.92 g/m*3 6.48 C 0 km/h
418 20-04-2019 09:00:00 8.16667 C 7.71 g/m*3 8.17 C 0 km/h
419 20-04-2019 10:00:00 11.68333 C 8.74 g/m*3 11.68 C 1.33333 km/h
420 20-04-2019 11:00:00 16.725 C 9.1 g/m*3 16.73 C 3.46667 km/h
421 20-04-2019 12:00:00 20.225 C 8.22 g/m*3 20.23 C 6.7 km/h
422 20-04-2019 13:00:00 22.05 C 7.07 g/m*3 22.05 C 10.61667 km/h
423 20-04-2019 14:00:00 23.275 C 6.04 g/m*3 23.28 C 11.95 km/h
424 20-04-2019 15:00:00 24.25833 C 6.13 g/m*3 24.26 C 11.96667 km/h
425 20-04-2019 16:00:00 25.21667 C 6.21 g/m*3 25.22 C 12.36667 km/h
Sensor: Nr:Datum:Temp:Abs-Feuchte:Windchill:Wind:
Aussen-T/F 426 20-04-2019 17:00:00 25.30833 C 5.89 g/m*3 25.31 C 14.1 km/h
427 20-04-2019 18:00:00 25.39167 C 5.55 g/m*3 25.39 C 10.89167 km/h
428 20-04-2019 19:00:00 24.575 C 6.03 g/m*3 24.58 C 5.5 km/h
429 20-04-2019 20:00:00 19.875 C 7.41 g/m*3 19.88 C 3.6 km/h
430 20-04-2019 21:00:00 16.175 C 7.52 g/m*3 16.18 C 0.66667 km/h
431 20-04-2019 22:00:00 13.81667 C 7.54 g/m*3 13.82 C 0 km/h
432 20-04-2019 23:00:00 12.90833 C 7.4 g/m*3 12.91 C 0 km/h
433 21-04-2019 00:00:00 12.84167 C 7.27 g/m*3 12.84 C 0 km/h
434 21-04-2019 01:00:00 12.48333 C 7.18 g/m*3 12.48 C 0 km/h
435 21-04-2019 02:00:00 11.36667 C 7.19 g/m*3 11.37 C 0 km/h
436 21-04-2019 03:00:00 10.81667 C 7.23 g/m*3 10.82 C 0 km/h
437 21-04-2019 04:00:00 9.23333 C 7.01 g/m*3 9.23 C 0 km/h
438 21-04-2019 05:00:00 7.375 C 6.74 g/m*3 7.38 C 0 km/h
439 21-04-2019 06:00:00 6.45 C 6.56 g/m*3 6.45 C 0 km/h
440 21-04-2019 07:00:00 6.68333 C 6.77 g/m*3 6.68 C 0 km/h
441 21-04-2019 08:00:00 7.16667 C 7.04 g/m*3 7.17 C 0 km/h
442 21-04-2019 09:00:00 8.675 C 7.73 g/m*3 8.68 C 0 km/h
443 21-04-2019 10:00:00 11.98333 C 8.67 g/m*3 11.98 C 0 km/h
444 21-04-2019 11:00:00 16.48333 C 8.88 g/m*3 16.48 C 1.2 km/h
445 21-04-2019 12:00:00 19.65833 C 7.65 g/m*3 19.66 C 5.08333 km/h
446 21-04-2019 13:00:00 21.525 C 6.63 g/m*3 21.53 C 7.65833 km/h
447 21-04-2019 14:00:00 22.98333 C 6.16 g/m*3 22.98 C 8.2 km/h
448 21-04-2019 15:00:00 24.46667 C 6.78 g/m*3 24.47 C 9.81667 km/h
449 21-04-2019 16:00:00 25.73333 C 6.32 g/m*3 25.73 C 11.41667 km/h
450 21-04-2019 17:00:00 25.94167 C 5.95 g/m*3 25.94 C 11.825 km/h
Sensor: Nr:Datum:Temp:Abs-Feuchte:Windchill:Wind:
Aussen-T/F 451 21-04-2019 18:00:00 26.13333 C 5.97 g/m*3 26.13 C 7.50833 km/h
452 21-04-2019 19:00:00 24.58333 C 6.37 g/m*3 24.58 C 4.95 km/h
453 21-04-2019 20:00:00 19.69167 C 6.89 g/m*3 19.69 C 3.6 km/h
454 21-04-2019 21:00:00 16.725 C 7.21 g/m*3 16.73 C 2.26667 km/h
455 21-04-2019 22:00:00 13.85833 C 7.54 g/m*3 13.86 C 0 km/h
456 21-04-2019 23:00:00 12.21667 C 7.25 g/m*3 12.22 C 0 km/h
457 22-04-2019 00:00:00 10.54167 C 7.03 g/m*3 10.54 C 0 km/h
458 22-04-2019 01:00:00 9.24167 C 6.98 g/m*3 9.24 C 0 km/h
459 22-04-2019 02:00:00 8.2 C 6.91 g/m*3 8.2 C 0.13333 km/h
460 22-04-2019 03:00:00 7.56667 C 6.83 g/m*3 7.57 C 0.13333 km/h
461 22-04-2019 04:00:00 6.64167 C 6.65 g/m*3 6.64 C 0 km/h
462 22-04-2019 05:00:00 5.89167 C 6.51 g/m*3 5.89 C 0 km/h
463 22-04-2019 06:00:00 5.475 C 6.43 g/m*3 5.48 C 0 km/h
464 22-04-2019 07:00:00 5.74167 C 6.63 g/m*3 5.74 C 0 km/h
465 22-04-2019 08:00:00 6.54167 C 6.99 g/m*3 6.54 C 0 km/h
466 22-04-2019 09:00:00 8.40833 C 7.81 g/m*3 8.41 C 0.8 km/h
467 22-04-2019 10:00:00 12.55 C 8.39 g/m*3 12.55 C 3.075 km/h
468 22-04-2019 11:00:00 17.96667 C 7.52 g/m*3 17.97 C 11.825 km/h
469 22-04-2019 12:00:00 20.89167 C 6.96 g/m*3 20.89 C 12.76667 km/h
470 22-04-2019 13:00:00 22.65 C 5.99 g/m*3 22.65 C 14.36667 km/h
471 22-04-2019 14:00:00 23.45 C 6.13 g/m*3 23.45 C 15.3 km/h
472 22-04-2019 15:00:00 24.375 C 6.32 g/m*3 24.38 C 15.03333 km/h
473 22-04-2019 16:00:00 25.49167 C 6.11 g/m*3 25.49 C 15.83333 km/h
474 22-04-2019 17:00:00 25.70833 C 5.93 g/m*3 25.71 C 12.9 km/h
475 22-04-2019 18:00:00 24.4 C 6.25 g/m*3 24.4 C 4.55833 km/h
Sensor: Nr:Datum:Temp:Abs-Feuchte:Windchill:Wind:
Aussen-T/F 476 22-04-2019 19:00:00 21.4 C 7.8 g/m*3 21.4 C 2 km/h
477 22-04-2019 20:00:00 19.55 C 7.24 g/m*3 19.55 C 5.50833 km/h
478 22-04-2019 21:00:00 16.975 C 7.06 g/m*3 16.98 C 3.46667 km/h
479 22-04-2019 22:00:00 15.15 C 6.63 g/m*3 15.15 C 3.74167 km/h
480 22-04-2019 23:00:00 15.04167 C 6.34 g/m*3 15.04 C 5.36667 km/h
481 23-04-2019 00:00:00 13.175 C 6.4 g/m*3 13.18 C 2.13333 km/h
482 23-04-2019 01:00:00 11.55 C 6.45 g/m*3 11.55 C 0.53333 km/h
483 23-04-2019 02:00:00 10.31667 C 6.42 g/m*3 10.32 C 0.66667 km/h
484 23-04-2019 03:00:00 9.7 C 6.31 g/m*3 9.7 C 0 km/h
485 23-04-2019 04:00:00 9.15833 C 6.39 g/m*3 9.16 C 0 km/h
486 23-04-2019 05:00:00 8.83333 C 6.38 g/m*3 8.83 C 0 km/h
487 23-04-2019 06:00:00 8.31667 C 6.41 g/m*3 8.32 C 0 km/h
488 23-04-2019 07:00:00 8.99167 C 6.81 g/m*3 8.99 C 0 km/h
489 23-04-2019 08:00:00 10.325 C 7.31 g/m*3 10.33 C 0 km/h
490 23-04-2019 09:00:00 12.53333 C 7.04 g/m*3 12.53 C 7.94167 km/h
491 23-04-2019 10:00:00 14.025 C 7.28 g/m*3 14.03 C 9.95833 km/h
492 23-04-2019 11:00:00 15.475 C 7.58 g/m*3 15.48 C 12.76667 km/h
493 23-04-2019 12:00:00 17.04167 C 8.01 g/m*3 17.04 C 11.56667 km/h
494 23-04-2019 13:00:00 18.89167 C 8.29 g/m*3 18.89 C 14.36667 km/h
495 23-04-2019 14:00:00 20.44167 C 8.5 g/m*3 20.44 C 13.16667 km/h
496 23-04-2019 15:00:00 21.76667 C 8.55 g/m*3 21.77 C 14.76667 km/h
497 23-04-2019 16:00:00 23.1 C 8.79 g/m*3 23.1 C 10.875 km/h
498 23-04-2019 17:00:00 23.4 C 8.97 g/m*3 23.4 C 8.475 km/h
499 23-04-2019 18:00:00 21.775 C 8.86 g/m*3 21.78 C 7.91667 km/h
500 23-04-2019 19:00:00 20.31667 C 9.21 g/m*3 20.32 C 2.93333 km/h
Sensor: Nr:Datum:Temp:Abs-Feuchte:Windchill:Wind:
Aussen-T/F 501 23-04-2019 20:00:00 17.975 C 9.41 g/m*3 17.98 C 0.53333 km/h
502 23-04-2019 21:00:00 16.08333 C 9.45 g/m*3 16.08 C 0.13333 km/h
503 23-04-2019 22:00:00 15.54167 C 9.44 g/m*3 15.54 C 0 km/h
504 23-04-2019 23:00:00 15.08333 C 9.3 g/m*3 15.08 C 0 km/h
505 24-04-2019 00:00:00 14.425 C 9.31 g/m*3 14.43 C 0 km/h
506 24-04-2019 01:00:00 12.65833 C 8.71 g/m*3 12.66 C 0 km/h
507 24-04-2019 02:00:00 11.325 C 8.48 g/m*3 11.33 C 0 km/h
508 24-04-2019 03:00:00 10.39167 C 8.33 g/m*3 10.39 C 0 km/h
509 24-04-2019 04:00:00 9.89167 C 8.28 g/m*3 9.89 C 0 km/h
510 24-04-2019 05:00:00 9.35 C 8.12 g/m*3 9.35 C 0 km/h
511 24-04-2019 06:00:00 9.1 C 8.13 g/m*3 9.1 C 0.26667 km/h
512 24-04-2019 07:00:00 9.66667 C 8.51 g/m*3 9.67 C 0 km/h
513 24-04-2019 08:00:00 11.55833 C 9.01 g/m*3 11.56 C 0 km/h
514 24-04-2019 09:00:00 13.39167 C 9.57 g/m*3 13.39 C 0 km/h
515 24-04-2019 10:00:00 16.14167 C 10.2 g/m*3 16.14 C 0 km/h
516 24-04-2019 11:00:00 18.73333 C 10.71 g/m*3 18.73 C 1.74167 km/h
517 24-04-2019 12:00:00 21.425 C 9.5 g/m*3 21.43 C 9.14167 km/h
518 24-04-2019 13:00:00 22.38333 C 9.03 g/m*3 22.38 C 9.14167 km/h
519 24-04-2019 14:00:00 23.45 C 9.01 g/m*3 23.45 C 6.05 km/h
520 24-04-2019 15:00:00 24.80833 C 8.88 g/m*3 24.81 C 6.56667 km/h
521 24-04-2019 16:00:00 25.20833 C 9.14 g/m*3 25.21 C 6.15833 km/h
522 24-04-2019 17:00:00 25.675 C 9.78 g/m*3 25.68 C 6.16667 km/h
523 24-04-2019 18:00:00 19.91667 C 9.77 g/m*3 19.92 C 24.66667 km/h
524 24-04-2019 19:00:00 13.875 C 9.24 g/m*3 13.88 C 28.94167 km/h
525 24-04-2019 20:00:00 11.34167 C 8.8 g/m*3 11.34 C 16.225 km/h
Sensor: Nr:Datum:Temp:Abs-Feuchte:Windchill:Wind:
Aussen-T/F 526 24-04-2019 21:00:00 9.85 C 8.55 g/m*3 9.85 C 1.86667 km/h
527 24-04-2019 22:00:00 9.16667 C 8.33 g/m*3 9.17 C 0 km/h
528 24-04-2019 23:00:00 9.00833 C 8.37 g/m*3 9.01 C 0 km/h
529 25-04-2019 00:00:00 8.85833 C 8.3 g/m*3 8.86 C 0.4 km/h
530 25-04-2019 01:00:00 8.125 C 7.92 g/m*3 8.13 C 0.66667 km/h
531 25-04-2019 02:00:00 7.45 C 7.6 g/m*3 7.45 C 0 km/h
532 25-04-2019 03:00:00 7.2 C 7.54 g/m*3 7.2 C 0 km/h
533 25-04-2019 04:00:00 7.05833 C 7.47 g/m*3 7.06 C 0 km/h
534 25-04-2019 05:00:00 7.10833 C 7.49 g/m*3 7.11 C 0 km/h
535 25-04-2019 06:00:00 7.05833 C 7.53 g/m*3 7.06 C 0.4 km/h
536 25-04-2019 07:00:00 7.85833 C 7.95 g/m*3 7.86 C 0.53333 km/h
537 25-04-2019 08:00:00 9.16667 C 8.64 g/m*3 9.17 C 3.06667 km/h
538 25-04-2019 09:00:00 10.63333 C 9.49 g/m*3 10.63 C 0.13333 km/h
539 25-04-2019 10:00:00 11.54167 C 9.93 g/m*3 11.54 C 1.75 km/h
540 25-04-2019 11:00:00 14.14167 C 9.69 g/m*3 14.14 C 8.06667 km/h
541 25-04-2019 12:00:00 16.96667 C 9.24 g/m*3 16.97 C 8.60833 km/h
542 25-04-2019 13:00:00 18.6 C 9.35 g/m*3 18.6 C 8.61667 km/h
543 25-04-2019 14:00:00 20.25833 C 9.3 g/m*3 20.26 C 7.39167 km/h
544 25-04-2019 15:00:00 21.525 C 9.32 g/m*3 21.53 C 8.19167 km/h
545 25-04-2019 16:00:00 22.125 C 10.75 g/m*3 22.13 C 3.21667 km/h
546 25-04-2019 17:00:00 21.35 C 11.08 g/m*3 21.35 C 6.725 km/h
547 25-04-2019 18:00:00 20.55833 C 9.8 g/m*3 20.56 C 13.95833 km/h
548 25-04-2019 19:00:00 16.88333 C 8.82 g/m*3 16.88 C 17.45 km/h
549 25-04-2019 20:00:00 15.125 C 8.62 g/m*3 15.13 C 12.61667 km/h
550 25-04-2019 21:00:00 13.85 C 8.64 g/m*3 13.85 C 7.125 km/h
Sensor: Nr:Datum:Temp:Abs-Feuchte:Windchill:Wind:
Aussen-T/F 551 25-04-2019 22:00:00 13.04167 C 8.49 g/m*3 13.04 C 2.4 km/h
552 25-04-2019 23:00:00 12.425 C 8.57 g/m*3 12.43 C 0 km/h
553 26-04-2019 00:00:00 11.39167 C 8.43 g/m*3 11.39 C 0 km/h
554 26-04-2019 01:00:00 10.93333 C 8.5 g/m*3 10.93 C 0 km/h
555 26-04-2019 02:00:00 11.00833 C 8.44 g/m*3 11.01 C 0 km/h
556 26-04-2019 03:00:00 10.98333 C 8.31 g/m*3 10.98 C 0 km/h
557 26-04-2019 04:00:00 10.8 C 8.27 g/m*3 10.8 C 2.80833 km/h
558 26-04-2019 05:00:00 10.4 C 8.38 g/m*3 10.4 C 2.80833 km/h
559 26-04-2019 06:00:00 9.625 C 8.44 g/m*3 9.63 C 0.93333 km/h
560 26-04-2019 07:00:00 9.5 C 8.55 g/m*3 9.5 C 0.93333 km/h
561 26-04-2019 08:00:00 9.50833 C 8.62 g/m*3 9.51 C 0.8 km/h
562 26-04-2019 09:00:00 9.99167 C 8.92 g/m*3 9.99 C 3.08333 km/h
563 26-04-2019 10:00:00 10.275 C 9.08 g/m*3 10.28 C 3.48333 km/h
564 26-04-2019 11:00:00 10.88333 C 9.29 g/m*3 10.88 C 4.55833 km/h
565 26-04-2019 12:00:00 11.95833 C 9.42 g/m*3 11.96 C 8.73333 km/h
566 26-04-2019 13:00:00 13.00833 C 9.36 g/m*3 13.01 C 9.68333 km/h
567 26-04-2019 14:00:00 13.53333 C 9.16 g/m*3 13.53 C 10.9 km/h
568 26-04-2019 15:00:00 13.525 C 8.98 g/m*3 13.53 C 9 km/h
569 26-04-2019 16:00:00 15.06667 C 9.1 g/m*3 15.07 C 8.74167 km/h
570 26-04-2019 17:00:00 15.74167 C 8.85 g/m*3 15.74 C 6.025 km/h
571 26-04-2019 18:00:00 16.925 C 8.93 g/m*3 16.93 C 3.60833 km/h
572 26-04-2019 19:00:00 15.84167 C 9.71 g/m*3 15.84 C 0 km/h
573 26-04-2019 20:00:00 12.575 C 8.92 g/m*3 12.58 C 7.89167 km/h
574 26-04-2019 21:00:00 10.89167 C 8.66 g/m*3 10.89 C 2.13333 km/h
575 26-04-2019 22:00:00 10.45833 C 8.59 g/m*3 10.46 C 0 km/h
Sensor: Nr:Datum:Temp:Abs-Feuchte:Windchill:Wind:
Aussen-T/F 576 26-04-2019 23:00:00 10.00833 C 8.49 g/m*3 10.01 C 0 km/h
577 27-04-2019 00:00:00 9.20833 C 8.21 g/m*3 9.21 C 0 km/h
578 27-04-2019 01:00:00 9.14167 C 8.27 g/m*3 9.14 C 0 km/h
579 27-04-2019 02:00:00 8.575 C 7.99 g/m*3 8.57 C 0.26667 km/h
580 27-04-2019 03:00:00 7.875 C 7.71 g/m*3 7.88 C 0 km/h
581 27-04-2019 04:00:00 7.18333 C 7.39 g/m*3 7.18 C 0 km/h
582 27-04-2019 05:00:00 6.64167 C 7.18 g/m*3 6.64 C 0 km/h
583 27-04-2019 06:00:00 6.425 C 7.12 g/m*3 6.43 C 0 km/h
584 27-04-2019 07:00:00 7.15 C 7.51 g/m*3 7.15 C 0 km/h
585 27-04-2019 08:00:00 8.66667 C 8.36 g/m*3 8.67 C 0 km/h
586 27-04-2019 09:00:00 10.16667 C 9.01 g/m*3 10.17 C 1.33333 km/h
587 27-04-2019 10:00:00 11.30833 C 8.95 g/m*3 11.31 C 3.075 km/h
588 27-04-2019 11:00:00 12.64167 C 8.49 g/m*3 12.64 C 11.14167 km/h
589 27-04-2019 12:00:00 12.69167 C 9.08 g/m*3 12.69 C 9.29167 km/h
590 27-04-2019 13:00:00 13.025 C 8.85 g/m*3 13.03 C 14.90833 km/h
591 27-04-2019 14:00:00 9.525 C 8.21 g/m*3 8.62 C 7.24167 km/h
592 27-04-2019 15:00:00 10.46667 C 8.71 g/m*3 10.47 C 3.475 km/h
593 27-04-2019 16:00:00 11.75 C 8.58 g/m*3 11.75 C 6.85 km/h
594 27-04-2019 17:00:00 12.35 C 8.56 g/m*3 12.35 C 6.84167 km/h
595 27-04-2019 18:00:00 11.34167 C 8.22 g/m*3 11.34 C 5.89167 km/h
596 27-04-2019 19:00:00 9.55833 C 8.23 g/m*3 8.92 C 6.16667 km/h
597 27-04-2019 20:00:00 7.725 C 7.49 g/m*3 7.73 C 3.33333 km/h
598 27-04-2019 21:00:00 7.3 C 7.41 g/m*3 7.3 C 0.8 km/h
599 27-04-2019 22:00:00 6.76667 C 7.22 g/m*3 6.77 C 1.33333 km/h
600 27-04-2019 23:00:00 6.84167 C 7.28 g/m*3 6.84 C 4.55833 km/h
Sensor: Nr:Datum:Temp:Abs-Feuchte:Windchill:Wind:
Aussen-T/F 601 28-04-2019 00:00:00 6.86667 C 7.2 g/m*3 6.87 C 4.15 km/h
602 28-04-2019 01:00:00 6.875 C 7.09 g/m*3 5.87 C 6.025 km/h
603 28-04-2019 02:00:00 6.43333 C 6.8 g/m*3 5.45 C 5.76667 km/h
604 28-04-2019 03:00:00 6.19167 C 6.63 g/m*3 5 C 6.30833 km/h
605 28-04-2019 04:00:00 6.41667 C 6.58 g/m*3 4.26 C 10.475 km/h
606 28-04-2019 05:00:00 6.26667 C 6.55 g/m*3 4.13 C 10.20833 km/h
607 28-04-2019 06:00:00 6.2 C 6.53 g/m*3 4.7 C 7.39167 km/h
608 28-04-2019 07:00:00 6.80833 C 6.75 g/m*3 5.45 C 7.25833 km/h
609 28-04-2019 08:00:00 7.575 C 6.92 g/m*3 6.24 C 7.65833 km/h
610 28-04-2019 09:00:00 7.93333 C 7.13 g/m*3 7.93 C 4.28333 km/h
611 28-04-2019 10:00:00 8.90833 C 7.27 g/m*3 8.18 C 6.15 km/h
612 28-04-2019 11:00:00 10 C 6.98 g/m*3 8.42 C 11.3 km/h
613 28-04-2019 12:00:00 10.325 C 6.77 g/m*3 9.12 C 9.39167 km/h
614 28-04-2019 13:00:00 11.3 C 6.83 g/m*3 11.3 C 8.61667 km/h
615 28-04-2019 14:00:00 12.35 C 7.24 g/m*3 12.35 C 7.125 km/h
616 28-04-2019 15:00:00 11.50833 C 7.58 g/m*3 11.51 C 6.56667 km/h
617 28-04-2019 16:00:00 10.375 C 8.07 g/m*3 10.11 C 5.23333 km/h
618 28-04-2019 17:00:00 11.44167 C 8.14 g/m*3 11.44 C 2.54167 km/h
619 28-04-2019 18:00:00 11.48333 C 7.7 g/m*3 11.48 C 6.73333 km/h
620 28-04-2019 19:00:00 10.86667 C 7.54 g/m*3 10.24 C 6.975 km/h
621 28-04-2019 20:00:00 9.65 C 7.37 g/m*3 9.65 C 1.475 km/h
622 28-04-2019 21:00:00 7.30833 C 6.87 g/m*3 7.31 C 0 km/h
623 28-04-2019 22:00:00 5.96667 C 6.55 g/m*3 5.97 C 0 km/h
624 28-04-2019 23:00:00 5 C 6.27 g/m*3 5 C 0 km/h
625 29-04-2019 00:00:00 4.41667 C 6.12 g/m*3 4.42 C 0 km/h
Sensor: Nr:Datum:Temp:Abs-Feuchte:Windchill:Wind:
Aussen-T/F 626 29-04-2019 01:00:00 4.03333 C 5.99 g/m*3 4.03 C 0 km/h
627 29-04-2019 02:00:00 3.425 C 5.8 g/m*3 3.43 C 0 km/h
628 29-04-2019 03:00:00 3.675 C 5.91 g/m*3 3.68 C 0 km/h
629 29-04-2019 04:00:00 3.54167 C 5.89 g/m*3 3.54 C 0 km/h
630 29-04-2019 05:00:00 3.35833 C 5.85 g/m*3 3.36 C 4.26667 km/h
631 29-04-2019 06:00:00 3.15 C 5.77 g/m*3 3.15 C 1.46667 km/h
632 29-04-2019 07:00:00 3.225 C 5.79 g/m*3 3.23 C 1.73333 km/h
633 29-04-2019 08:00:00 3.85833 C 6.07 g/m*3 3.86 C 4.26667 km/h
634 29-04-2019 09:00:00 4.99167 C 6.59 g/m*3 4.99 C 4.13333 km/h
635 29-04-2019 10:00:00 6.51667 C 7.15 g/m*3 6.52 C 2.4 km/h
636 29-04-2019 11:00:00 8.7 C 7.85 g/m*3 8.7 C 2.4 km/h
637 29-04-2019 12:00:00 11.925 C 8.18 g/m*3 11.93 C 5.48333 km/h
638 29-04-2019 13:00:00 13.975 C 7.63 g/m*3 13.98 C 9.025 km/h
639 29-04-2019 14:00:00 14.83333 C 7.25 g/m*3 14.83 C 9.69167 km/h
640 29-04-2019 15:00:00 15.29167 C 7.35 g/m*3 15.29 C 9.68333 km/h
641 29-04-2019 16:00:00 15.31667 C 7.23 g/m*3 15.32 C 11.43333 km/h
642 29-04-2019 17:00:00 15.31667 C 7.29 g/m*3 15.32 C 11.7 km/h
643 29-04-2019 18:00:00 13.69167 C 8.13 g/m*3 13.69 C 7.26667 km/h
644 29-04-2019 19:00:00 11.075 C 8.86 g/m*3 11.08 C 1.2 km/h
645 29-04-2019 20:00:00 10.25 C 8.74 g/m*3 10.25 C 0 km/h
646 29-04-2019 21:00:00 10.13333 C 8.75 g/m*3 10.13 C 0.4 km/h
647 29-04-2019 22:00:00 10.25833 C 8.76 g/m*3 10.26 C 2.675 km/h
648 29-04-2019 23:00:00 10.65833 C 8.78 g/m*3 10.66 C 1.73333 km/h
649 30-04-2019 00:00:00 10.98333 C 8.73 g/m*3 10.98 C 3.48333 km/h
650 30-04-2019 01:00:00 11.16667 C 8.72 g/m*3 11.17 C 5.09167 km/h
Sensor: Nr:Datum:Temp:Abs-Feuchte:Windchill:Wind:
Aussen-T/F 651 30-04-2019 02:00:00 10.85 C 8.73 g/m*3 10.85 C 4.01667 km/h
652 30-04-2019 03:00:00 10.59167 C 8.68 g/m*3 10.59 C 2.94167 km/h
653 30-04-2019 04:00:00 10.30833 C 8.52 g/m*3 10.31 C 2.275 km/h
654 30-04-2019 05:00:00 10.18333 C 8.37 g/m*3 9.9 C 5.225 km/h
655 30-04-2019 06:00:00 10.05833 C 8.38 g/m*3 10.06 C 3.89167 km/h
656 30-04-2019 07:00:00 10.075 C 8.38 g/m*3 9.62 C 5.775 km/h
657 30-04-2019 08:00:00 10.725 C 8.26 g/m*3 9.87 C 7.925 km/h
658 30-04-2019 09:00:00 11.51667 C 7.94 g/m*3 11.52 C 10.225 km/h
659 30-04-2019 10:00:00 12.61667 C 7.76 g/m*3 12.62 C 10.76667 km/h
660 30-04-2019 11:00:00 13.60833 C 7.39 g/m*3 13.61 C 10.34167 km/h
661 30-04-2019 12:00:00 14.5 C 7.26 g/m*3 14.5 C 12.225 km/h
662 30-04-2019 13:00:00 15.65833 C 7.11 g/m*3 15.66 C 11.29167 km/h
663 30-04-2019 14:00:00 16.86667 C 6.96 g/m*3 16.87 C 10.35 km/h
664 30-04-2019 15:00:00 18.59167 C 7.21 g/m*3 18.59 C 12.9 km/h
665 30-04-2019 16:00:00 20.025 C 7.07 g/m*3 20.02 C 12.23333 km/h
666 30-04-2019 17:00:00 20.46667 C 7.37 g/m*3 20.47 C 11.425 km/h
667 30-04-2019 18:00:00 20.24167 C 7.51 g/m*3 20.24 C 10.075 km/h
668 30-04-2019 19:00:00 18.90833 C 7.92 g/m*3 18.91 C 10.09167 km/h
669 30-04-2019 20:00:00 16.95833 C 8.22 g/m*3 16.96 C 6.96667 km/h
670 30-04-2019 21:00:00 15.48333 C 8.56 g/m*3 15.48 C 5.625 km/h
671 30-04-2019 22:00:00 14.225 C 8.66 g/m*3 14.23 C 7.925 km/h
672 30-04-2019 23:00:00 12.65833 C 8.65 g/m*3 12.66 C 2.81667 km/h
673 01-05-2019 00:00:00 11.25833 C 8.45 g/m*3 11.26 C 0.8 km/h
674 01-05-2019 01:00:00 10.36667 C 8.22 g/m*3 10.37 C 0.66667 km/h
675 01-05-2019 02:00:00 9.26667 C 7.91 g/m*3 9.27 C 0 km/h
Sensor: Nr:Datum:Temp:Abs-Feuchte:Windchill:Wind:
Aussen-T/F 676 01-05-2019 03:00:00 8.45833 C 7.73 g/m*3 8.46 C 0.13333 km/h
677 01-05-2019 04:00:00 8.075 C 7.62 g/m*3 8.07 C 0.4 km/h
678 01-05-2019 05:00:00 6.95833 C 7.13 g/m*3 6.96 C 0 km/h
679 01-05-2019 06:00:00 6.275 C 6.92 g/m*3 6.28 C 0.13333 km/h
680 01-05-2019 07:00:00 6.79167 C 7.26 g/m*3 6.79 C 0.53333 km/h
681 01-05-2019 08:00:00 7.9 C 7.79 g/m*3 7.9 C 0.8 km/h
682 01-05-2019 09:00:00 8.89167 C 8.14 g/m*3 8.89 C 1.46667 km/h
683 01-05-2019 10:00:00 10.11667 C 8.5 g/m*3 10.12 C 3.06667 km/h
684 01-05-2019 11:00:00 11.40833 C 8.86 g/m*3 11.41 C 3.06667 km/h
685 01-05-2019 12:00:00 13.80833 C 9.43 g/m*3 13.81 C 4.40833 km/h
686 01-05-2019 13:00:00 16.03333 C 9.07 g/m*3 16.03 C 7.54167 km/h
687 01-05-2019 14:00:00 17.69167 C 8.31 g/m*3 17.69 C 9.15833 km/h
688 01-05-2019 15:00:00 19.35 C 8.11 g/m*3 19.35 C 9.40833 km/h
689 01-05-2019 16:00:00 21.31667 C 8.18 g/m*3 21.32 C 7.40833 km/h
690 01-05-2019 17:00:00 21.48333 C 8.34 g/m*3 21.48 C 8.05833 km/h
691 01-05-2019 18:00:00 20.325 C 9.25 g/m*3 20.33 C 10.225 km/h
692 01-05-2019 19:00:00 18.21667 C 9.06 g/m*3 18.22 C 7.65833 km/h
693 01-05-2019 20:00:00 15.65833 C 8.45 g/m*3 15.66 C 3.475 km/h
694 01-05-2019 21:00:00 13.53333 C 8.59 g/m*3 13.53 C 5.90833 km/h
695 01-05-2019 22:00:00 12.76667 C 8.71 g/m*3 12.77 C 2.81667 km/h
696 01-05-2019 23:00:00 10.80833 C 8.45 g/m*3 10.81 C 0 km/h
697 02-05-2019 00:00:00 9.98333 C 8.29 g/m*3 9.98 C 0 km/h
698 02-05-2019 01:00:00 8.96667 C 7.95 g/m*3 8.97 C 0 km/h
699 02-05-2019 02:00:00 8.23333 C 7.78 g/m*3 8.23 C 0 km/h
700 02-05-2019 03:00:00 7.73333 C 7.6 g/m*3 7.73 C 0 km/h
Sensor: Nr:Datum:Temp:Abs-Feuchte:Windchill:Wind:
Aussen-T/F 701 02-05-2019 04:00:00 7.025 C 7.3 g/m*3 7.03 C 0 km/h
702 02-05-2019 05:00:00 6.325 C 6.99 g/m*3 6.33 C 0 km/h
703 02-05-2019 06:00:00 5.89167 C 6.85 g/m*3 5.89 C 0 km/h
704 02-05-2019 07:00:00 6.84167 C 7.36 g/m*3 6.84 C 0.8 km/h
705 02-05-2019 08:00:00 8.325 C 8.08 g/m*3 8.32 C 2.13333 km/h
706 02-05-2019 09:00:00 9.075 C 8.18 g/m*3 9.07 C 1.73333 km/h
707 02-05-2019 10:00:00 10.725 C 8.12 g/m*3 10.73 C 3.2 km/h
708 02-05-2019 11:00:00 12.15833 C 8.24 g/m*3 12.16 C 5.21667 km/h
709 02-05-2019 12:00:00 12.925 C 8.35 g/m*3 12.93 C 6.98333 km/h
710 02-05-2019 13:00:00 14.15 C 8.46 g/m*3 14.15 C 7.25833 km/h
711 02-05-2019 14:00:00 15.85 C 8.81 g/m*3 15.85 C 6.96667 km/h
712 02-05-2019 15:00:00 16.58333 C 8.62 g/m*3 16.58 C 9.69167 km/h
713 02-05-2019 16:00:00 17.225 C 8.51 g/m*3 17.23 C 8.86667 km/h
714 02-05-2019 17:00:00 17.75 C 7.79 g/m*3 17.75 C 9.28333 km/h
715 02-05-2019 18:00:00 17.96667 C 7.18 g/m*3 17.97 C 9.425 km/h
716 02-05-2019 19:00:00 15.54167 C 7.98 g/m*3 15.54 C 12.9 km/h
717 02-05-2019 20:00:00 12.78333 C 8.61 g/m*3 12.78 C 8.175 km/h
718 02-05-2019 21:00:00 11.44167 C 9.11 g/m*3 11.44 C 0.4 km/h
719 02-05-2019 22:00:00 10.75833 C 8.96 g/m*3 10.76 C 2.93333 km/h
720 02-05-2019 23:00:00 10.7 C 9.01 g/m*3 10.7 C 0.53333 km/h
721 03-05-2019 00:00:00 10.6 C 9.01 g/m*3 10.6 C 2.93333 km/h
722 03-05-2019 01:00:00 10.51667 C 8.41 g/m*3 9.44 C 8.88333 km/h
723 03-05-2019 02:00:00 9.85 C 7.83 g/m*3 9.32 C 5.91667 km/h
724 03-05-2019 03:00:00 9.375 C 7.74 g/m*3 9.38 C 2.675 km/h
725 03-05-2019 04:00:00 9.16667 C 7.81 g/m*3 9.17 C 0.53333 km/h
Sensor: Nr:Datum:Temp:Abs-Feuchte:Windchill:Wind:
Aussen-T/F 726 03-05-2019 05:00:00 9.28333 C 7.9 g/m*3 9.28 C 3.46667 km/h
727 03-05-2019 06:00:00 9.25 C 7.86 g/m*3 9.25 C 3.475 km/h
728 03-05-2019 07:00:00 9.25 C 7.67 g/m*3 8.71 C 5.63333 km/h
729 03-05-2019 08:00:00 9.65833 C 7.68 g/m*3 9.14 C 5.76667 km/h
730 03-05-2019 09:00:00 10.10833 C 7.52 g/m*3 8.86 C 9.425 km/h
731 03-05-2019 10:00:00 10.78333 C 7.28 g/m*3 9.39 C 11.15833 km/h
732 03-05-2019 11:00:00 11.16667 C 6.99 g/m*3 11.17 C 10.625 km/h
733 03-05-2019 12:00:00 11.34167 C 7.05 g/m*3 11.34 C 8.61667 km/h
734 03-05-2019 13:00:00 12.075 C 7.02 g/m*3 12.08 C 9.95 km/h
735 03-05-2019 14:00:00 12.98333 C 6.74 g/m*3 12.98 C 14.9 km/h
736 03-05-2019 15:00:00 14.38333 C 6.53 g/m*3 14.38 C 15.03333 km/h
737 03-05-2019 16:00:00 15 C 6.54 g/m*3 15 C 13.16667 km/h
738 03-05-2019 17:00:00 14.125 C 6.55 g/m*3 14.13 C 13.56667 km/h
739 03-05-2019 18:00:00 13.64167 C 6.65 g/m*3 13.64 C 10.225 km/h
740 03-05-2019 19:00:00 12.4 C 6.56 g/m*3 12.4 C 8.06667 km/h
741 03-05-2019 20:00:00 11.18333 C 6.51 g/m*3 11.18 C 7.25 km/h
742 03-05-2019 21:00:00 9.875 C 6.54 g/m*3 9.88 C 4.81667 km/h
743 03-05-2019 22:00:00 9.375 C 6.71 g/m*3 9.38 C 3.075 km/h
744 03-05-2019 23:00:00 8.65833 C 6.78 g/m*3 8.66 C 0.8 km/h

Maximal/Minimal-Werte vom 03.04.2019 - 03.05.2019

Sensor Min Max Avg
Temp
(Aussen-T/F)
0.3 °C
14-04-2019  00:50:00
26.6 °C
24-04-2019  17:05:00
10.99 °C
Abs-Feuchte
(Aussen-T/F)
3.64 g/m*3
12-04-2019  17:00:00
11.08 g/m*3
25-04-2019  17:00:00
7.27 g/m*3
Windchill
(Aussen-T/F)
0.45 C
14-04-2019  01:00:00
26.13 C
21-04-2019  18:00:00
10.82 C

Die Daten stammen von einer Davis Vantage Pro 2 Wetter-Station und werden unter Linux mit der Software wview2wettercgi und aufbereitet. Alle Angaben erfolgen ohne Gewähr für ihre Vollständigkeit oder Richtigkeit.
Kontakt: Rainer Krienke krienke@uni-koblenz.de . Meine Webseiten an der Uni Koblenz oder privat.
Version: $Revision: 0.78 $